Islamorada, FL

1:51 AM EDT on May 26, 2015 (GMT -0400)
Miami International | | Change Station
CLOSE
Current Station
Airport
Location: Miami,
Elevation: 13 ft
Nearby Weather Stations

Elev 13 ft 25.79 °N, 80.32 °W | Updated 58 minutes ago

Partly Cloudy
Partly Cloudy
82 °F
Feels Like 87 °F
N
14
Wind Variable Wind from SE

Today
High -- | Low -- °F
--% Chance of Precip.
Yesterday
High -- | Low -- °F
Precip. -- in
6:34 AM 8:05 PM
First Quarter, 55% visible
Pressure 30.16 in
Visibility 10.0 miles
Clouds Few 2300 ft
Scattered Clouds 3000 ft
Heat Index 87 °F
Dew Point 72 °F
Humidity 71%
Rainfall 0.00 in
Snow Depth Not available.
UV 0 out of 12
Pollen 4.30 out of 12
Air Quality Not available.
Flu Activity Sporadic
METAR KMIA 260453Z 13012KT 10SM FEW023 SCT030 28/22 A3016 RMK AO2 SLP212 T02780222 403170261

More Conditions Fewer Conditions

Pressure 30.16 in
Visibility 10.0 miles
Clouds Few 2300 ft
Scattered Clouds 3000 ft
Heat Index 87 °F
Dew Point 72 °F
Humidity 71%
Rainfall 0.00 in
Snow Depth Not available.
UV 0 out of 12
Pollen 4.30 out of 12
Air Quality Not available.
Flu Activity Sporadic
METAR KMIA 260453Z 13012KT 10SM FEW023 SCT030 28/22 A3016 RMK AO2 SLP212 T02780222 403170261

More Conditions Fewer Conditions

10-Day Weather Forecast

Almanac

Astronomy

May. 26, 2015 Rise Set
Actual Time
Civil Twilight
Nautical Twilight
Astronomical Twilight
Moon
Length of Visible Light
Length of Day
Tomorrow will be .
, % of the Moon is Illuminated

Today's Extremes

State Highs State Lows

Community

WunderPhotos

Upload Photos

1,824,289 photos uploaded!

WunderBlogs® & News

Nearby

Air Quality

  Air Quality AQ Index Pollutant
Not available.

Snow Depth

Station Depth Elevation

Earthquake Activity

City Distance Mag. Time & Date
Minimum magnitude displayed is 2.5.

Coastal Water Temperatures

Place Temperature

Stations

Nearby Weather Stations

Station Location Temp. Windchill Dew Point Humidity Wind Precip. Elev Updated Type